Terminal Aerodrome Forecast
Issued by NWS

Home | Current Version | Previous Version | Text Only | Print | Product List | Glossary On
Versions: 1 2 3 4 5 6 7 8 9 10 11 12 13 14 15 16 17 18 19
432
FTUS43 KDVN 200906 AAB
TAFBRL
TAF AMD
KBRL 200906Z 2009/2106 10009KT 6SM -DZ BR OVC004
      TEMPO 2009/2013 3SM -TSRA OVC004CB
     FM201600 14010KT 4SM BR OVC006 PROB30 2021/2024 3SM TSRA BR
      OVC008CB
     FM210000 21010KT P6SM OVC025=

USA.gov is the U.S. government's official web portal to all federal, state and local government web resources and services.